Pagina principale
METAR-TAF:

METAR-TAF

Aeroporti :

Aeroporto di Annaba-Rabah Bitat

Annaba, Algeria

latitudine: 36-50N, longitudine: 007-49E, altezza: 4 m

Osservazione

Il bollettino è stato emesso 29 minuti fa, alle 20:30 UTC
Vento calmo
Temperature 15°C
Umidità 82%
Pressione 1006 hPa
Visibilità 10 km o più
Poco nuvoloso ad un'altezza di 2300 ft
Nubi sparse ad un'altezza di 10000 ft

METAR: DABB 182030Z 00000KT 9999 FEW023 SCT100 15/12 Q1006

Ora: 21:59 (20:59 UTC)

Previsione

Il bollettino è stato emesso 3 ore e 59 minuti fa, alle 17:00 UTC
Previsione valida dal 18 alle 18 UTC al 19 alle 18 UTC
Vento 8 kt da est
Visibilità 10 km o più
Poco nuvoloso ad un'altezza di 2300 ft
Nuvoloso ad un'altezza di 20000 ft
Probabilità 30% :
Temporaneamente
dal 19 alle 00 UTC al 19 alle 06 UTC
Visibilità: 3000 m
Nubi sparse ad un'altezza di 800 ft
foschia

TAF: DABB 181700Z 1818/1918 08008KT 9999 FEW023 BKN200 PROB30 TEMPO 1900/1906 3000 BR SCT008

Osservazioni e previsioni meteorologiche di più di 4000 aeroporti (messaggi METAR e TAF).

Le stazioni disponibili sono rappresentate dai dischi gialli e rossi sulla carta.

Puntare il mouse per vedere il nome della stazione.

Clicca sopra per visualizzare le osservazioni e previsioni meteorologiche.

Per cambiare la mappa : fare clic sui pulsanti verdi con una croce nera per ingrandire, il pulsante verde con un trattino per diminuire, o sulla freccia verde per le mappe adiacenti.


METAR-TAF: